Terminal Aerodrome Forecast
Issued by NWS

Home | Current Version | Previous Version | Text Only | Print | Product List | Glossary On
Versions: 1 2 3 4 5 6 7 8 9 10 11 12 13 14 15 16 17 18 19 20 21 22
699
FTUS41 KPBZ 101924 AAA
TAFAGC
TAF AMD
KAGC 101924Z 1019/1118 25012G20KT 2SM -SHSN OVC025
     FM102300 26010G18KT 1SM -SHSN OVC012
     FM110300 27010G15KT 3SM -SHSN OVC012
     FM111200 29010G20KT 6SM -SHSN OVC025=

USA.gov is the U.S. government's official web portal to all federal, state and local government web resources and services.